Corupa, Brazil
Current Conditions -  °F | °C
As of 11:00 AM on Monday 22 Dec 2014 (Local Time) from SBJV Reporting Station
Light Rain Light Rain  
Wind Chill: 73°   Ceiling: 600
Heat Index: 73°   Visibility: 3mi
Dew Point: 73°   Wind: 9mph
Humidity: 100%   Direction: 140°SE
Pressure: 29.85"   Gusts: NA
Location:  26.45°S, 49.22°W
Report Text: SBJV 221300Z 14008KT 5000 -RA BKN006 OVC020 23/23 Q1011 RERA
Loading
Personal Weather Stations






























Interactive Weather Map New forecast layout! Learn more

10-Day Weather Forecast

Advertisements
Track Severe Weather on mobile